sensor_id;sensor_type;location;lat;lon;timestamp;P1;durP1;ratioP1;P2;durP2;ratioP2
66485;SDS011;53303;47.476;8.084;2023-07-20T00:00:51;4.68;;;1.80;;
66485;SDS011;53303;47.476;8.084;2023-07-20T00:03:18;3.65;;;1.80;;
66485;SDS011;53303;47.476;8.084;2023-07-20T00:05:48;3.90;;;1.77;;
66485;SDS011;53303;47.476;8.084;2023-07-20T00:08:14;4.00;;;1.52;;
66485;SDS011;53303;47.476;8.084;2023-07-20T00:10:40;5.53;;;1.77;;
66485;SDS011;53303;47.476;8.084;2023-07-20T00:13:06;4.60;;;1.88;;
66485;SDS011;53303;47.476;8.084;2023-07-20T00:15:31;5.50;;;1.92;;
66485;SDS011;53303;47.476;8.084;2023-07-20T00:17:56;5.65;;;1.70;;
66485;SDS011;53303;47.476;8.084;2023-07-20T00:20:23;4.18;;;1.50;;
66485;SDS011;53303;47.476;8.084;2023-07-20T00:22:49;4.50;;;1.45;;
66485;SDS011;53303;47.476;8.084;2023-07-20T00:25:16;4.90;;;1.83;;
66485;SDS011;53303;47.476;8.084;2023-07-20T00:27:42;3.38;;;1.40;;
66485;SDS011;53303;47.476;8.084;2023-07-20T00:30:07;6.20;;;1.73;;
66485;SDS011;53303;47.476;8.084;2023-07-20T00:32:33;5.57;;;1.65;;
66485;SDS011;53303;47.476;8.084;2023-07-20T00:34:58;3.60;;;1.70;;
66485;SDS011;53303;47.476;8.084;2023-07-20T00:37:26;4.75;;;1.70;;
66485;SDS011;53303;47.476;8.084;2023-07-20T00:39:52;4.10;;;1.58;;
66485;SDS011;53303;47.476;8.084;2023-07-20T00:42:18;4.50;;;1.70;;
66485;SDS011;53303;47.476;8.084;2023-07-20T00:44:43;3.25;;;1.50;;
66485;SDS011;53303;47.476;8.084;2023-07-20T00:47:09;3.30;;;1.40;;
66485;SDS011;53303;47.476;8.084;2023-07-20T00:49:34;5.18;;;1.63;;
66485;SDS011;53303;47.476;8.084;2023-07-20T00:52:00;4.13;;;1.70;;
66485;SDS011;53303;47.476;8.084;2023-07-20T00:54:27;3.60;;;1.30;;
66485;SDS011;53303;47.476;8.084;2023-07-20T00:56:53;3.85;;;1.45;;
66485;SDS011;53303;47.476;8.084;2023-07-20T00:59:19;6.47;;;1.85;;
66485;SDS011;53303;47.476;8.084;2023-07-20T01:01:46;4.80;;;1.63;;
66485;SDS011;53303;47.476;8.084;2023-07-20T01:04:11;4.22;;;1.60;;
66485;SDS011;53303;47.476;8.084;2023-07-20T01:09:18;5.53;;;1.58;;
66485;SDS011;53303;47.476;8.084;2023-07-20T01:11:54;3.40;;;1.40;;
66485;SDS011;53303;47.476;8.084;2023-07-20T01:14:21;3.17;;;1.45;;
66485;SDS011;53303;47.476;8.084;2023-07-20T01:16:48;3.60;;;1.63;;
66485;SDS011;53303;47.476;8.084;2023-07-20T01:19:15;3.33;;;1.58;;
66485;SDS011;53303;47.476;8.084;2023-07-20T01:24:20;4.95;;;1.88;;
66485;SDS011;53303;47.476;8.084;2023-07-20T01:27:01;5.43;;;1.63;;
66485;SDS011;53303;47.476;8.084;2023-07-20T01:32:07;3.17;;;1.30;;
66485;SDS011;53303;47.476;8.084;2023-07-20T01:34:37;3.85;;;1.50;;
66485;SDS011;53303;47.476;8.084;2023-07-20T01:37:05;4.45;;;1.40;;
66485;SDS011;53303;47.476;8.084;2023-07-20T01:39:31;4.00;;;1.50;;
66485;SDS011;53303;47.476;8.084;2023-07-20T01:41:58;4.88;;;1.73;;
66485;SDS011;53303;47.476;8.084;2023-07-20T01:44:24;4.93;;;1.25;;
66485;SDS011;53303;47.476;8.084;2023-07-20T01:46:49;3.75;;;1.10;;
66485;SDS011;53303;47.476;8.084;2023-07-20T01:49:14;3.83;;;1.50;;
66485;SDS011;53303;47.476;8.084;2023-07-20T01:51:40;3.72;;;1.42;;
66485;SDS011;53303;47.476;8.084;2023-07-20T01:54:06;5.63;;;1.73;;
66485;SDS011;53303;47.476;8.084;2023-07-20T01:56:31;3.78;;;1.60;;
66485;SDS011;53303;47.476;8.084;2023-07-20T01:58:56;3.67;;;1.52;;
66485;SDS011;53303;47.476;8.084;2023-07-20T02:01:24;4.15;;;1.52;;
66485;SDS011;53303;47.476;8.084;2023-07-20T02:03:50;3.80;;;1.38;;
66485;SDS011;53303;47.476;8.084;2023-07-20T02:06:16;3.95;;;1.20;;
66485;SDS011;53303;47.476;8.084;2023-07-20T02:08:42;4.93;;;1.20;;
66485;SDS011;53303;47.476;8.084;2023-07-20T02:11:08;4.10;;;1.48;;
66485;SDS011;53303;47.476;8.084;2023-07-20T02:13:35;3.28;;;1.23;;
66485;SDS011;53303;47.476;8.084;2023-07-20T02:16:00;4.05;;;1.40;;
66485;SDS011;53303;47.476;8.084;2023-07-20T02:18:25;4.03;;;1.50;;
66485;SDS011;53303;47.476;8.084;2023-07-20T02:20:52;3.42;;;1.20;;
66485;SDS011;53303;47.476;8.084;2023-07-20T02:23:18;3.92;;;1.17;;
66485;SDS011;53303;47.476;8.084;2023-07-20T02:25:43;3.00;;;1.10;;
66485;SDS011;53303;47.476;8.084;2023-07-20T02:28:10;3.10;;;1.20;;
66485;SDS011;53303;47.476;8.084;2023-07-20T02:30:38;4.50;;;1.52;;
66485;SDS011;53303;47.476;8.084;2023-07-20T02:33:07;4.15;;;1.60;;
66485;SDS011;53303;47.476;8.084;2023-07-20T02:35:32;3.90;;;1.35;;
66485;SDS011;53303;47.476;8.084;2023-07-20T02:37:58;3.20;;;1.40;;
66485;SDS011;53303;47.476;8.084;2023-07-20T02:40:23;2.63;;;1.15;;
66485;SDS011;53303;47.476;8.084;2023-07-20T02:42:52;3.88;;;1.60;;
66485;SDS011;53303;47.476;8.084;2023-07-20T02:45:18;4.32;;;1.42;;
66485;SDS011;53303;47.476;8.084;2023-07-20T02:47:44;4.43;;;1.58;;
66485;SDS011;53303;47.476;8.084;2023-07-20T02:50:09;4.80;;;1.63;;
66485;SDS011;53303;47.476;8.084;2023-07-20T02:52:37;5.22;;;1.63;;
66485;SDS011;53303;47.476;8.084;2023-07-20T02:55:02;3.25;;;1.33;;
66485;SDS011;53303;47.476;8.084;2023-07-20T02:57:30;4.28;;;1.35;;
66485;SDS011;53303;47.476;8.084;2023-07-20T02:59:58;4.28;;;1.75;;
66485;SDS011;53303;47.476;8.084;2023-07-20T03:02:24;3.83;;;1.42;;
66485;SDS011;53303;47.476;8.084;2023-07-20T03:04:50;3.97;;;1.48;;
66485;SDS011;53303;47.476;8.084;2023-07-20T03:07:19;4.85;;;1.50;;
66485;SDS011;53303;47.476;8.084;2023-07-20T03:09:44;5.93;;;1.70;;
66485;SDS011;53303;47.476;8.084;2023-07-20T03:12:12;3.28;;;1.30;;
66485;SDS011;53303;47.476;8.084;2023-07-20T03:14:37;3.95;;;1.42;;
66485;SDS011;53303;47.476;8.084;2023-07-20T03:17:02;3.65;;;1.83;;
66485;SDS011;53303;47.476;8.084;2023-07-20T03:19:29;3.15;;;1.20;;
66485;SDS011;53303;47.476;8.084;2023-07-20T03:21:55;3.80;;;1.30;;
66485;SDS011;53303;47.476;8.084;2023-07-20T03:24:20;4.35;;;1.20;;
66485;SDS011;53303;47.476;8.084;2023-07-20T03:26:46;4.88;;;1.85;;
66485;SDS011;53303;47.476;8.084;2023-07-20T03:29:11;4.30;;;1.10;;
66485;SDS011;53303;47.476;8.084;2023-07-20T03:31:37;3.33;;;1.38;;
66485;SDS011;53303;47.476;8.084;2023-07-20T03:34:02;3.85;;;1.30;;
66485;SDS011;53303;47.476;8.084;2023-07-20T03:36:30;3.92;;;1.50;;
66485;SDS011;53303;47.476;8.084;2023-07-20T03:38:56;4.28;;;1.60;;
66485;SDS011;53303;47.476;8.084;2023-07-20T03:41:21;4.32;;;1.23;;
66485;SDS011;53303;47.476;8.084;2023-07-20T03:43:47;3.90;;;1.50;;
66485;SDS011;53303;47.476;8.084;2023-07-20T03:46:12;4.97;;;1.33;;
66485;SDS011;53303;47.476;8.084;2023-07-20T03:48:38;3.72;;;1.17;;
66485;SDS011;53303;47.476;8.084;2023-07-20T03:51:03;3.58;;;1.20;;
66485;SDS011;53303;47.476;8.084;2023-07-20T03:53:29;4.72;;;1.35;;
66485;SDS011;53303;47.476;8.084;2023-07-20T03:55:54;5.13;;;1.40;;
66485;SDS011;53303;47.476;8.084;2023-07-20T03:58:20;5.85;;;1.60;;
66485;SDS011;53303;47.476;8.084;2023-07-20T04:00:49;5.10;;;1.83;;
66485;SDS011;53303;47.476;8.084;2023-07-20T04:03:16;2.75;;;1.23;;
66485;SDS011;53303;47.476;8.084;2023-07-20T04:05:43;4.15;;;1.52;;
66485;SDS011;53303;47.476;8.084;2023-07-20T04:08:09;4.15;;;1.40;;
66485;SDS011;53303;47.476;8.084;2023-07-20T04:10:36;3.08;;;1.30;;
66485;SDS011;53303;47.476;8.084;2023-07-20T04:13:01;4.13;;;1.40;;
66485;SDS011;53303;47.476;8.084;2023-07-20T04:15:30;6.13;;;1.63;;
66485;SDS011;53303;47.476;8.084;2023-07-20T04:17:55;3.45;;;1.40;;
66485;SDS011;53303;47.476;8.084;2023-07-20T04:20:24;3.78;;;1.20;;
66485;SDS011;53303;47.476;8.084;2023-07-20T04:22:49;5.18;;;1.60;;
66485;SDS011;53303;47.476;8.084;2023-07-20T04:25:15;5.90;;;1.52;;
66485;SDS011;53303;47.476;8.084;2023-07-20T04:27:41;3.88;;;1.50;;
66485;SDS011;53303;47.476;8.084;2023-07-20T04:30:07;4.75;;;1.30;;
66485;SDS011;53303;47.476;8.084;2023-07-20T04:32:34;5.20;;;1.75;;
66485;SDS011;53303;47.476;8.084;2023-07-20T04:34:59;5.22;;;1.20;;
66485;SDS011;53303;47.476;8.084;2023-07-20T04:37:25;4.70;;;1.27;;
66485;SDS011;53303;47.476;8.084;2023-07-20T04:39:50;6.18;;;1.50;;
66485;SDS011;53303;47.476;8.084;2023-07-20T04:42:15;5.43;;;1.58;;
66485;SDS011;53303;47.476;8.084;2023-07-20T04:44:41;5.75;;;1.77;;
66485;SDS011;53303;47.476;8.084;2023-07-20T04:47:09;4.72;;;1.48;;
66485;SDS011;53303;47.476;8.084;2023-07-20T04:49:37;4.00;;;1.58;;
66485;SDS011;53303;47.476;8.084;2023-07-20T04:52:02;7.63;;;1.63;;
66485;SDS011;53303;47.476;8.084;2023-07-20T04:54:28;5.32;;;1.60;;
66485;SDS011;53303;47.476;8.084;2023-07-20T04:56:53;6.00;;;1.45;;
66485;SDS011;53303;47.476;8.084;2023-07-20T04:59:19;4.15;;;1.42;;
66485;SDS011;53303;47.476;8.084;2023-07-20T05:01:44;5.28;;;1.40;;
66485;SDS011;53303;47.476;8.084;2023-07-20T05:04:10;3.70;;;1.20;;
66485;SDS011;53303;47.476;8.084;2023-07-20T05:06:35;4.95;;;1.90;;
66485;SDS011;53303;47.476;8.084;2023-07-20T05:09:00;4.00;;;1.40;;
66485;SDS011;53303;47.476;8.084;2023-07-20T05:11:28;3.72;;;1.67;;
66485;SDS011;53303;47.476;8.084;2023-07-20T05:13:54;4.45;;;1.40;;
66485;SDS011;53303;47.476;8.084;2023-07-20T05:16:21;3.33;;;1.13;;
66485;SDS011;53303;47.476;8.084;2023-07-20T05:18:47;4.15;;;1.40;;
66485;SDS011;53303;47.476;8.084;2023-07-20T05:21:12;6.20;;;1.50;;
66485;SDS011;53303;47.476;8.084;2023-07-20T05:23:38;4.60;;;1.60;;
66485;SDS011;53303;47.476;8.084;2023-07-20T05:26:04;2.83;;;1.15;;
66485;SDS011;53303;47.476;8.084;2023-07-20T05:28:29;2.60;;;1.20;;
66485;SDS011;53303;47.476;8.084;2023-07-20T05:30:55;3.28;;;1.13;;
66485;SDS011;53303;47.476;8.084;2023-07-20T05:33:20;4.43;;;1.40;;
66485;SDS011;53303;47.476;8.084;2023-07-20T05:35:46;3.55;;;1.42;;
66485;SDS011;53303;47.476;8.084;2023-07-20T05:38:15;4.78;;;1.30;;
66485;SDS011;53303;47.476;8.084;2023-07-20T05:40:40;5.30;;;1.50;;
66485;SDS011;53303;47.476;8.084;2023-07-20T05:43:07;4.55;;;1.10;;
66485;SDS011;53303;47.476;8.084;2023-07-20T05:45:33;4.07;;;1.13;;
66485;SDS011;53303;47.476;8.084;2023-07-20T05:47:59;4.20;;;1.42;;
66485;SDS011;53303;47.476;8.084;2023-07-20T05:50:24;3.88;;;1.20;;
66485;SDS011;53303;47.476;8.084;2023-07-20T05:52:52;4.25;;;1.00;;
66485;SDS011;53303;47.476;8.084;2023-07-20T05:55:18;4.63;;;1.13;;
66485;SDS011;53303;47.476;8.084;2023-07-20T05:57:43;3.20;;;1.27;;
66485;SDS011;53303;47.476;8.084;2023-07-20T06:00:09;2.60;;;1.30;;
66485;SDS011;53303;47.476;8.084;2023-07-20T06:02:35;5.47;;;1.50;;
66485;SDS011;53303;47.476;8.084;2023-07-20T06:05:00;5.03;;;1.73;;
66485;SDS011;53303;47.476;8.084;2023-07-20T06:07:26;5.47;;;1.48;;
66485;SDS011;53303;47.476;8.084;2023-07-20T06:09:51;5.07;;;1.30;;
66485;SDS011;53303;47.476;8.084;2023-07-20T06:12:19;5.65;;;1.77;;
66485;SDS011;53303;47.476;8.084;2023-07-20T06:14:45;7.45;;;1.38;;
66485;SDS011;53303;47.476;8.084;2023-07-20T06:17:11;4.13;;;1.40;;
66485;SDS011;53303;47.476;8.084;2023-07-20T06:19:37;5.53;;;1.52;;
66485;SDS011;53303;47.476;8.084;2023-07-20T06:22:02;5.82;;;1.42;;
66485;SDS011;53303;47.476;8.084;2023-07-20T06:24:28;5.72;;;1.90;;
66485;SDS011;53303;47.476;8.084;2023-07-20T06:26:53;4.88;;;1.50;;
66485;SDS011;53303;47.476;8.084;2023-07-20T06:29:19;4.38;;;1.13;;
66485;SDS011;53303;47.476;8.084;2023-07-20T06:31:44;8.27;;;1.98;;
66485;SDS011;53303;47.476;8.084;2023-07-20T06:34:10;7.30;;;1.60;;
66485;SDS011;53303;47.476;8.084;2023-07-20T06:36:35;5.22;;;1.55;;
66485;SDS011;53303;47.476;8.084;2023-07-20T06:39:00;9.60;;;1.80;;
66485;SDS011;53303;47.476;8.084;2023-07-20T06:41:27;6.90;;;1.80;;
66485;SDS011;53303;47.476;8.084;2023-07-20T06:43:52;9.63;;;1.60;;
66485;SDS011;53303;47.476;8.084;2023-07-20T06:46:23;4.45;;;1.50;;
66485;SDS011;53303;47.476;8.084;2023-07-20T06:48:51;8.90;;;1.40;;
66485;SDS011;53303;47.476;8.084;2023-07-20T06:51:16;5.22;;;1.20;;
66485;SDS011;53303;47.476;8.084;2023-07-20T06:53:43;6.47;;;1.25;;
66485;SDS011;53303;47.476;8.084;2023-07-20T06:56:08;3.33;;;0.93;;
66485;SDS011;53303;47.476;8.084;2023-07-20T06:58:34;3.95;;;1.10;;
66485;SDS011;53303;47.476;8.084;2023-07-20T07:01:04;4.97;;;1.33;;
66485;SDS011;53303;47.476;8.084;2023-07-20T07:03:30;4.68;;;1.33;;
66485;SDS011;53303;47.476;8.084;2023-07-20T07:05:58;5.30;;;1.30;;
66485;SDS011;53303;47.476;8.084;2023-07-20T07:08:26;5.68;;;1.48;;
66485;SDS011;53303;47.476;8.084;2023-07-20T07:10:52;5.50;;;1.73;;
66485;SDS011;53303;47.476;8.084;2023-07-20T07:13:17;4.63;;;1.35;;
66485;SDS011;53303;47.476;8.084;2023-07-20T07:15:43;3.80;;;1.45;;
66485;SDS011;53303;47.476;8.084;2023-07-20T07:18:09;2.60;;;1.13;;
66485;SDS011;53303;47.476;8.084;2023-07-20T07:20:34;4.63;;;1.23;;
66485;SDS011;53303;47.476;8.084;2023-07-20T07:23:00;3.00;;;1.10;;
66485;SDS011;53303;47.476;8.084;2023-07-20T07:25:25;7.97;;;1.40;;
66485;SDS011;53303;47.476;8.084;2023-07-20T07:27:54;6.13;;;1.70;;
66485;SDS011;53303;47.476;8.084;2023-07-20T07:30:21;3.53;;;1.40;;
66485;SDS011;53303;47.476;8.084;2023-07-20T07:32:46;3.40;;;1.30;;
66485;SDS011;53303;47.476;8.084;2023-07-20T07:35:12;3.80;;;1.58;;
66485;SDS011;53303;47.476;8.084;2023-07-20T07:37:38;5.75;;;1.52;;
66485;SDS011;53303;47.476;8.084;2023-07-20T07:40:03;5.60;;;1.88;;
66485;SDS011;53303;47.476;8.084;2023-07-20T07:42:33;4.57;;;1.60;;
66485;SDS011;53303;47.476;8.084;2023-07-20T07:44:58;4.18;;;1.70;;
66485;SDS011;53303;47.476;8.084;2023-07-20T07:47:27;4.30;;;1.67;;
66485;SDS011;53303;47.476;8.084;2023-07-20T07:49:54;4.80;;;1.65;;
66485;SDS011;53303;47.476;8.084;2023-07-20T07:52:20;5.45;;;1.80;;
66485;SDS011;53303;47.476;8.084;2023-07-20T07:54:46;3.47;;;1.55;;
66485;SDS011;53303;47.476;8.084;2023-07-20T07:57:11;3.30;;;1.48;;
66485;SDS011;53303;47.476;8.084;2023-07-20T07:59:39;4.53;;;1.88;;
66485;SDS011;53303;47.476;8.084;2023-07-20T08:02:04;3.92;;;1.60;;
66485;SDS011;53303;47.476;8.084;2023-07-20T08:04:36;4.30;;;1.70;;
66485;SDS011;53303;47.476;8.084;2023-07-20T08:07:03;6.00;;;1.63;;
66485;SDS011;53303;47.476;8.084;2023-07-20T08:09:29;5.18;;;1.60;;
66485;SDS011;53303;47.476;8.084;2023-07-20T08:11:54;4.40;;;1.70;;
66485;SDS011;53303;47.476;8.084;2023-07-20T08:14:22;5.47;;;1.67;;
66485;SDS011;53303;47.476;8.084;2023-07-20T08:16:47;4.43;;;1.65;;
66485;SDS011;53303;47.476;8.084;2023-07-20T08:19:19;5.18;;;1.73;;
66485;SDS011;53303;47.476;8.084;2023-07-20T08:21:49;3.25;;;1.50;;
66485;SDS011;53303;47.476;8.084;2023-07-20T08:24:15;4.28;;;1.52;;
66485;SDS011;53303;47.476;8.084;2023-07-20T08:26:42;4.00;;;1.73;;
66485;SDS011;53303;47.476;8.084;2023-07-20T08:29:08;4.22;;;1.70;;
66485;SDS011;53303;47.476;8.084;2023-07-20T08:31:33;4.30;;;1.60;;
66485;SDS011;53303;47.476;8.084;2023-07-20T08:34:01;4.18;;;1.67;;
66485;SDS011;53303;47.476;8.084;2023-07-20T08:36:26;4.88;;;1.70;;
66485;SDS011;53303;47.476;8.084;2023-07-20T08:38:52;3.88;;;1.60;;
66485;SDS011;53303;47.476;8.084;2023-07-20T08:41:17;6.80;;;1.85;;
66485;SDS011;53303;47.476;8.084;2023-07-20T08:43:43;5.00;;;1.50;;
66485;SDS011;53303;47.476;8.084;2023-07-20T08:46:11;5.15;;;1.67;;
66485;SDS011;53303;47.476;8.084;2023-07-20T08:48:38;4.70;;;1.83;;
66485;SDS011;53303;47.476;8.084;2023-07-20T08:51:05;6.18;;;1.83;;
66485;SDS011;53303;47.476;8.084;2023-07-20T08:53:31;4.88;;;1.70;;
66485;SDS011;53303;47.476;8.084;2023-07-20T08:55:58;5.32;;;1.77;;
66485;SDS011;53303;47.476;8.084;2023-07-20T08:58:28;4.32;;;1.92;;
66485;SDS011;53303;47.476;8.084;2023-07-20T09:00:56;4.38;;;1.60;;
66485;SDS011;53303;47.476;8.084;2023-07-20T09:03:24;5.13;;;1.70;;
66485;SDS011;53303;47.476;8.084;2023-07-20T09:05:50;4.40;;;1.90;;
66485;SDS011;53303;47.476;8.084;2023-07-20T09:08:15;3.22;;;1.40;;
66485;SDS011;53303;47.476;8.084;2023-07-20T09:10:41;4.75;;;1.90;;
66485;SDS011;53303;47.476;8.084;2023-07-20T09:13:06;9.30;;;2.10;;
66485;SDS011;53303;47.476;8.084;2023-07-20T09:15:32;8.18;;;1.55;;
66485;SDS011;53303;47.476;8.084;2023-07-20T09:17:58;5.43;;;1.50;;
66485;SDS011;53303;47.476;8.084;2023-07-20T09:20:26;5.07;;;1.83;;
66485;SDS011;53303;47.476;8.084;2023-07-20T09:22:52;6.88;;;1.80;;
66485;SDS011;53303;47.476;8.084;2023-07-20T09:25:18;4.38;;;1.58;;
66485;SDS011;53303;47.476;8.084;2023-07-20T09:27:47;5.68;;;1.60;;
66485;SDS011;53303;47.476;8.084;2023-07-20T09:30:15;3.80;;;1.70;;
66485;SDS011;53303;47.476;8.084;2023-07-20T09:32:47;5.47;;;1.80;;
66485;SDS011;53303;47.476;8.084;2023-07-20T09:35:14;5.40;;;1.40;;
66485;SDS011;53303;47.476;8.084;2023-07-20T09:37:40;4.15;;;1.88;;
66485;SDS011;53303;47.476;8.084;2023-07-20T09:40:10;5.03;;;2.08;;
66485;SDS011;53303;47.476;8.084;2023-07-20T09:42:39;4.85;;;1.77;;
66485;SDS011;53303;47.476;8.084;2023-07-20T09:45:06;4.70;;;1.65;;
66485;SDS011;53303;47.476;8.084;2023-07-20T09:47:38;4.45;;;1.85;;
66485;SDS011;53303;47.476;8.084;2023-07-20T09:50:04;6.82;;;1.80;;
66485;SDS011;53303;47.476;8.084;2023-07-20T09:52:36;4.97;;;1.40;;
66485;SDS011;53303;47.476;8.084;2023-07-20T09:55:04;4.38;;;1.70;;
66485;SDS011;53303;47.476;8.084;2023-07-20T09:57:31;5.47;;;1.58;;
66485;SDS011;53303;47.476;8.084;2023-07-20T10:00:00;6.90;;;1.50;;
66485;SDS011;53303;47.476;8.084;2023-07-20T10:02:33;4.10;;;1.40;;
66485;SDS011;53303;47.476;8.084;2023-07-20T10:05:03;3.10;;;1.40;;
66485;SDS011;53303;47.476;8.084;2023-07-20T10:07:29;2.72;;;1.25;;
66485;SDS011;53303;47.476;8.084;2023-07-20T10:09:56;5.13;;;1.90;;
66485;SDS011;53303;47.476;8.084;2023-07-20T10:12:26;4.13;;;1.50;;
66485;SDS011;53303;47.476;8.084;2023-07-20T10:14:59;4.97;;;1.60;;
66485;SDS011;53303;47.476;8.084;2023-07-20T10:17:36;4.05;;;2.08;;
66485;SDS011;53303;47.476;8.084;2023-07-20T10:20:05;5.95;;;1.67;;
66485;SDS011;53303;47.476;8.084;2023-07-20T10:22:34;3.75;;;1.40;;
66485;SDS011;53303;47.476;8.084;2023-07-20T10:25:01;4.32;;;1.63;;
66485;SDS011;53303;47.476;8.084;2023-07-20T10:27:27;3.38;;;1.80;;
66485;SDS011;53303;47.476;8.084;2023-07-20T10:29:53;5.47;;;1.83;;
66485;SDS011;53303;47.476;8.084;2023-07-20T10:32:20;4.78;;;1.85;;
66485;SDS011;53303;47.476;8.084;2023-07-20T10:34:52;4.40;;;1.65;;
66485;SDS011;53303;47.476;8.084;2023-07-20T10:40:27;4.10;;;1.50;;
66485;SDS011;53303;47.476;8.084;2023-07-20T10:42:59;6.28;;;1.88;;
66485;SDS011;53303;47.476;8.084;2023-07-20T10:45:35;5.70;;;1.40;;
66485;SDS011;53303;47.476;8.084;2023-07-20T10:48:12;3.78;;;1.60;;
66485;SDS011;53303;47.476;8.084;2023-07-20T10:50:40;7.45;;;1.90;;
66485;SDS011;53303;47.476;8.084;2023-07-20T10:53:14;5.03;;;1.65;;
66485;SDS011;53303;47.476;8.084;2023-07-20T10:55:40;6.32;;;1.90;;
66485;SDS011;53303;47.476;8.084;2023-07-20T10:58:11;4.38;;;1.50;;
66485;SDS011;53303;47.476;8.084;2023-07-20T11:03:43;6.32;;;1.95;;
66485;SDS011;53303;47.476;8.084;2023-07-20T11:09:03;5.60;;;1.83;;
66485;SDS011;53303;47.476;8.084;2023-07-20T11:11:42;5.22;;;1.45;;
66485;SDS011;53303;47.476;8.084;2023-07-20T11:16:47;4.00;;;1.70;;
66485;SDS011;53303;47.476;8.084;2023-07-20T11:19:17;5.60;;;1.75;;
66485;SDS011;53303;47.476;8.084;2023-07-20T11:21:45;5.70;;;1.90;;
66485;SDS011;53303;47.476;8.084;2023-07-20T11:24:14;5.15;;;1.70;;
66485;SDS011;53303;47.476;8.084;2023-07-20T11:26:43;5.75;;;1.60;;
66485;SDS011;53303;47.476;8.084;2023-07-20T11:29:11;5.35;;;1.60;;
66485;SDS011;53303;47.476;8.084;2023-07-20T11:31:41;5.70;;;2.00;;
66485;SDS011;53303;47.476;8.084;2023-07-20T11:34:09;5.25;;;1.77;;
66485;SDS011;53303;47.476;8.084;2023-07-20T11:36:43;4.40;;;1.50;;
66485;SDS011;53303;47.476;8.084;2023-07-20T11:39:13;4.78;;;1.90;;
66485;SDS011;53303;47.476;8.084;2023-07-20T11:41:43;5.93;;;1.80;;
66485;SDS011;53303;47.476;8.084;2023-07-20T11:44:11;5.63;;;1.80;;
66485;SDS011;53303;47.476;8.084;2023-07-20T11:46:40;4.60;;;1.77;;
66485;SDS011;53303;47.476;8.084;2023-07-20T11:49:07;5.13;;;1.70;;
66485;SDS011;53303;47.476;8.084;2023-07-20T11:51:34;5.10;;;1.38;;
66485;SDS011;53303;47.476;8.084;2023-07-20T11:54:00;4.05;;;1.70;;
66485;SDS011;53303;47.476;8.084;2023-07-20T11:56:27;5.90;;;1.83;;
66485;SDS011;53303;47.476;8.084;2023-07-20T11:58:57;6.00;;;1.50;;
66485;SDS011;53303;47.476;8.084;2023-07-20T12:01:30;5.53;;;1.80;;
66485;SDS011;53303;47.476;8.084;2023-07-20T12:03:59;4.30;;;1.77;;
66485;SDS011;53303;47.476;8.084;2023-07-20T12:06:27;4.15;;;1.77;;
66485;SDS011;53303;47.476;8.084;2023-07-20T12:08:58;6.97;;;1.85;;
66485;SDS011;53303;47.476;8.084;2023-07-20T12:11:37;5.05;;;1.70;;
66485;SDS011;53303;47.476;8.084;2023-07-20T12:14:04;4.20;;;1.52;;
66485;SDS011;53303;47.476;8.084;2023-07-20T12:16:32;3.85;;;1.58;;
66485;SDS011;53303;47.476;8.084;2023-07-20T12:21:27;6.63;;;2.03;;
66485;SDS011;53303;47.476;8.084;2023-07-20T12:23:54;4.18;;;1.60;;
66485;SDS011;53303;47.476;8.084;2023-07-20T12:26:21;8.07;;;1.85;;
66485;SDS011;53303;47.476;8.084;2023-07-20T12:28:51;5.50;;;1.70;;
66485;SDS011;53303;47.476;8.084;2023-07-20T12:31:22;4.47;;;1.75;;
66485;SDS011;53303;47.476;8.084;2023-07-20T12:33:49;3.95;;;1.63;;
66485;SDS011;53303;47.476;8.084;2023-07-20T12:36:15;3.75;;;1.63;;
66485;SDS011;53303;47.476;8.084;2023-07-20T12:38:43;4.13;;;1.85;;
66485;SDS011;53303;47.476;8.084;2023-07-20T12:41:09;3.92;;;1.55;;
66485;SDS011;53303;47.476;8.084;2023-07-20T12:43:38;3.83;;;1.73;;
66485;SDS011;53303;47.476;8.084;2023-07-20T12:46:05;7.05;;;1.75;;
66485;SDS011;53303;47.476;8.084;2023-07-20T12:48:31;4.78;;;1.65;;
66485;SDS011;53303;47.476;8.084;2023-07-20T12:50:57;3.22;;;1.67;;
66485;SDS011;53303;47.476;8.084;2023-07-20T12:53:22;3.70;;;1.52;;
66485;SDS011;53303;47.476;8.084;2023-07-20T12:55:48;4.55;;;1.45;;
66485;SDS011;53303;47.476;8.084;2023-07-20T12:58:15;5.13;;;1.92;;
66485;SDS011;53303;47.476;8.084;2023-07-20T13:00:41;5.30;;;1.83;;
66485;SDS011;53303;47.476;8.084;2023-07-20T13:03:07;4.72;;;2.00;;
66485;SDS011;53303;47.476;8.084;2023-07-20T13:05:33;3.88;;;1.48;;
66485;SDS011;53303;47.476;8.084;2023-07-20T13:08:00;4.03;;;1.80;;
66485;SDS011;53303;47.476;8.084;2023-07-20T13:10:31;3.80;;;1.50;;
66485;SDS011;53303;47.476;8.084;2023-07-20T13:12:56;37.55;;;5.25;;
66485;SDS011;53303;47.476;8.084;2023-07-20T13:15:24;68.40;;;6.30;;
66485;SDS011;53303;47.476;8.084;2023-07-20T13:17:55;168.25;;;19.77;;
66485;SDS011;53303;47.476;8.084;2023-07-20T13:20:23;72.93;;;9.18;;
66485;SDS011;53303;47.476;8.084;2023-07-20T13:22:48;62.70;;;8.38;;
66485;SDS011;53303;47.476;8.084;2023-07-20T13:25:14;55.75;;;7.28;;
66485;SDS011;53303;47.476;8.084;2023-07-20T13:27:39;52.50;;;7.45;;
66485;SDS011;53303;47.476;8.084;2023-07-20T13:30:07;49.60;;;6.28;;
66485;SDS011;53303;47.476;8.084;2023-07-20T13:32:41;49.20;;;6.63;;
66485;SDS011;53303;47.476;8.084;2023-07-20T13:35:12;42.70;;;5.40;;
66485;SDS011;53303;47.476;8.084;2023-07-20T13:37:38;36.35;;;6.40;;
66485;SDS011;53303;47.476;8.084;2023-07-20T13:40:06;25.48;;;3.78;;
66485;SDS011;53303;47.476;8.084;2023-07-20T13:42:33;18.70;;;3.40;;
66485;SDS011;53303;47.476;8.084;2023-07-20T13:45:02;22.77;;;4.20;;
66485;SDS011;53303;47.476;8.084;2023-07-20T13:47:28;20.25;;;3.70;;
66485;SDS011;53303;47.476;8.084;2023-07-20T13:49:54;28.48;;;4.47;;
66485;SDS011;53303;47.476;8.084;2023-07-20T13:52:20;18.88;;;3.55;;
66485;SDS011;53303;47.476;8.084;2023-07-20T13:54:46;29.17;;;3.83;;
66485;SDS011;53303;47.476;8.084;2023-07-20T13:57:11;24.73;;;4.07;;
66485;SDS011;53303;47.476;8.084;2023-07-20T13:59:40;21.23;;;4.18;;
66485;SDS011;53303;47.476;8.084;2023-07-20T14:02:09;26.40;;;3.63;;
66485;SDS011;53303;47.476;8.084;2023-07-20T14:04:37;19.25;;;3.65;;
66485;SDS011;53303;47.476;8.084;2023-07-20T14:07:06;22.35;;;3.85;;
66485;SDS011;53303;47.476;8.084;2023-07-20T14:09:33;19.83;;;3.42;;
66485;SDS011;53303;47.476;8.084;2023-07-20T14:11:59;18.45;;;3.65;;
66485;SDS011;53303;47.476;8.084;2023-07-20T14:14:24;19.63;;;3.90;;
66485;SDS011;53303;47.476;8.084;2023-07-20T14:16:50;16.67;;;3.00;;
66485;SDS011;53303;47.476;8.084;2023-07-20T14:19:15;17.50;;;2.72;;
66485;SDS011;53303;47.476;8.084;2023-07-20T14:21:43;18.48;;;3.42;;
66485;SDS011;53303;47.476;8.084;2023-07-20T14:24:09;16.60;;;3.50;;
66485;SDS011;53303;47.476;8.084;2023-07-20T14:26:38;23.05;;;3.30;;
66485;SDS011;53303;47.476;8.084;2023-07-20T14:29:03;16.83;;;3.10;;
66485;SDS011;53303;47.476;8.084;2023-07-20T14:31:28;20.70;;;3.67;;
66485;SDS011;53303;47.476;8.084;2023-07-20T14:33:54;14.25;;;3.35;;
66485;SDS011;53303;47.476;8.084;2023-07-20T14:36:19;16.90;;;3.08;;
66485;SDS011;53303;47.476;8.084;2023-07-20T14:38:45;18.88;;;3.97;;
66485;SDS011;53303;47.476;8.084;2023-07-20T14:41:13;12.60;;;3.05;;
66485;SDS011;53303;47.476;8.084;2023-07-20T14:43:38;21.00;;;3.47;;
66485;SDS011;53303;47.476;8.084;2023-07-20T14:46:04;15.10;;;2.85;;
66485;SDS011;53303;47.476;8.084;2023-07-20T14:48:30;15.15;;;3.30;;
66485;SDS011;53303;47.476;8.084;2023-07-20T14:50:55;9.88;;;2.90;;
66485;SDS011;53303;47.476;8.084;2023-07-20T14:53:20;11.82;;;2.97;;
66485;SDS011;53303;47.476;8.084;2023-07-20T14:55:48;18.85;;;3.30;;
66485;SDS011;53303;47.476;8.084;2023-07-20T14:58:14;10.50;;;2.95;;
66485;SDS011;53303;47.476;8.084;2023-07-20T15:00:39;13.95;;;3.45;;
66485;SDS011;53303;47.476;8.084;2023-07-20T15:03:05;13.88;;;3.05;;
66485;SDS011;53303;47.476;8.084;2023-07-20T15:05:30;15.13;;;3.13;;